sensor_id;sensor_type;location;lat;lon;timestamp;P1;durP1;ratioP1;P2;durP2;ratioP2
71204;SDS011;58935;54.498;18.544;2023-05-07T00:02:06;8.30;;;4.70;;
71204;SDS011;58935;54.498;18.544;2023-05-07T00:04:32;10.70;;;4.80;;
71204;SDS011;58935;54.498;18.544;2023-05-07T00:07:02;8.80;;;5.10;;
71204;SDS011;58935;54.498;18.544;2023-05-07T00:09:28;8.20;;;4.90;;
71204;SDS011;58935;54.498;18.544;2023-05-07T00:11:53;8.50;;;5.40;;
71204;SDS011;58935;54.498;18.544;2023-05-07T00:14:19;6.10;;;4.80;;
71204;SDS011;58935;54.498;18.544;2023-05-07T00:16:45;10.40;;;4.80;;
71204;SDS011;58935;54.498;18.544;2023-05-07T00:19:10;7.10;;;4.90;;
71204;SDS011;58935;54.498;18.544;2023-05-07T00:21:36;10.10;;;4.90;;
71204;SDS011;58935;54.498;18.544;2023-05-07T00:24:02;8.40;;;5.60;;
71204;SDS011;58935;54.498;18.544;2023-05-07T00:26:28;16.70;;;5.00;;
71204;SDS011;58935;54.498;18.544;2023-05-07T00:28:53;13.10;;;5.30;;
71204;SDS011;58935;54.498;18.544;2023-05-07T00:31:19;10.30;;;5.00;;
71204;SDS011;58935;54.498;18.544;2023-05-07T00:33:44;11.80;;;5.10;;
71204;SDS011;58935;54.498;18.544;2023-05-07T00:36:10;17.50;;;4.70;;
71204;SDS011;58935;54.498;18.544;2023-05-07T00:38:35;11.70;;;4.60;;
71204;SDS011;58935;54.498;18.544;2023-05-07T00:41:01;11.50;;;4.80;;
71204;SDS011;58935;54.498;18.544;2023-05-07T00:43:27;9.40;;;4.50;;
71204;SDS011;58935;54.498;18.544;2023-05-07T00:45:54;9.20;;;4.20;;
71204;SDS011;58935;54.498;18.544;2023-05-07T00:48:20;16.30;;;5.20;;
71204;SDS011;58935;54.498;18.544;2023-05-07T00:50:46;10.20;;;4.90;;
71204;SDS011;58935;54.498;18.544;2023-05-07T00:53:12;5.60;;;4.60;;
71204;SDS011;58935;54.498;18.544;2023-05-07T00:55:39;6.20;;;4.30;;
71204;SDS011;58935;54.498;18.544;2023-05-07T00:58:05;12.00;;;5.20;;
71204;SDS011;58935;54.498;18.544;2023-05-07T01:00:31;9.80;;;4.50;;
71204;SDS011;58935;54.498;18.544;2023-05-07T01:02:57;11.70;;;5.10;;
71204;SDS011;58935;54.498;18.544;2023-05-07T01:05:24;10.40;;;4.60;;
71204;SDS011;58935;54.498;18.544;2023-05-07T01:07:53;8.80;;;4.30;;
71204;SDS011;58935;54.498;18.544;2023-05-07T01:10:20;7.60;;;4.60;;
71204;SDS011;58935;54.498;18.544;2023-05-07T01:12:48;10.70;;;4.50;;
71204;SDS011;58935;54.498;18.544;2023-05-07T01:15:15;8.00;;;4.60;;
71204;SDS011;58935;54.498;18.544;2023-05-07T01:17:43;10.20;;;4.20;;
71204;SDS011;58935;54.498;18.544;2023-05-07T01:20:09;11.40;;;4.70;;
71204;SDS011;58935;54.498;18.544;2023-05-07T01:22:37;7.50;;;4.30;;
71204;SDS011;58935;54.498;18.544;2023-05-07T01:25:05;6.10;;;4.40;;
71204;SDS011;58935;54.498;18.544;2023-05-07T01:27:32;7.10;;;4.70;;
71204;SDS011;58935;54.498;18.544;2023-05-07T01:29:59;9.30;;;4.40;;
71204;SDS011;58935;54.498;18.544;2023-05-07T01:32:47;11.60;;;4.80;;
71204;SDS011;58935;54.498;18.544;2023-05-07T01:35:20;12.10;;;5.60;;
71204;SDS011;58935;54.498;18.544;2023-05-07T01:37:48;9.70;;;4.30;;
71204;SDS011;58935;54.498;18.544;2023-05-07T01:40:15;10.30;;;4.50;;
71204;SDS011;58935;54.498;18.544;2023-05-07T01:42:42;10.50;;;4.60;;
71204;SDS011;58935;54.498;18.544;2023-05-07T01:45:09;9.20;;;5.30;;
71204;SDS011;58935;54.498;18.544;2023-05-07T01:47:37;9.10;;;4.30;;
71204;SDS011;58935;54.498;18.544;2023-05-07T01:50:05;8.30;;;4.50;;
71204;SDS011;58935;54.498;18.544;2023-05-07T01:52:34;8.70;;;4.70;;
71204;SDS011;58935;54.498;18.544;2023-05-07T01:55:00;14.70;;;5.60;;
71204;SDS011;58935;54.498;18.544;2023-05-07T01:57:25;9.30;;;4.60;;
71204;SDS011;58935;54.498;18.544;2023-05-07T01:59:50;6.30;;;4.40;;
71204;SDS011;58935;54.498;18.544;2023-05-07T02:02:16;8.40;;;4.70;;
71204;SDS011;58935;54.498;18.544;2023-05-07T02:04:41;9.20;;;4.70;;
71204;SDS011;58935;54.498;18.544;2023-05-07T02:07:07;11.80;;;4.80;;
71204;SDS011;58935;54.498;18.544;2023-05-07T02:09:32;12.20;;;5.00;;
71204;SDS011;58935;54.498;18.544;2023-05-07T02:11:58;10.30;;;4.80;;
71204;SDS011;58935;54.498;18.544;2023-05-07T02:14:23;11.80;;;4.80;;
71204;SDS011;58935;54.498;18.544;2023-05-07T02:16:49;10.80;;;4.80;;
71204;SDS011;58935;54.498;18.544;2023-05-07T02:22:38;11.10;;;4.90;;
71204;SDS011;58935;54.498;18.544;2023-05-07T02:25:04;8.50;;;4.70;;
71204;SDS011;58935;54.498;18.544;2023-05-07T02:27:29;8.50;;;4.90;;
71204;SDS011;58935;54.498;18.544;2023-05-07T02:29:55;8.00;;;4.80;;
71204;SDS011;58935;54.498;18.544;2023-05-07T02:32:20;8.60;;;5.00;;
71204;SDS011;58935;54.498;18.544;2023-05-07T02:34:50;7.50;;;5.10;;
71204;SDS011;58935;54.498;18.544;2023-05-07T02:37:16;8.30;;;4.70;;
71204;SDS011;58935;54.498;18.544;2023-05-07T02:39:41;9.00;;;5.40;;
71204;SDS011;58935;54.498;18.544;2023-05-07T02:42:06;8.20;;;4.20;;
71204;SDS011;58935;54.498;18.544;2023-05-07T02:44:32;7.00;;;4.60;;
71204;SDS011;58935;54.498;18.544;2023-05-07T02:46:57;6.40;;;4.50;;
71204;SDS011;58935;54.498;18.544;2023-05-07T02:49:23;8.70;;;4.30;;
71204;SDS011;58935;54.498;18.544;2023-05-07T02:51:48;10.50;;;4.40;;
71204;SDS011;58935;54.498;18.544;2023-05-07T02:54:14;10.90;;;4.80;;
71204;SDS011;58935;54.498;18.544;2023-05-07T02:56:39;7.60;;;4.20;;
71204;SDS011;58935;54.498;18.544;2023-05-07T02:59:05;11.40;;;5.10;;
71204;SDS011;58935;54.498;18.544;2023-05-07T03:01:30;9.60;;;4.90;;
71204;SDS011;58935;54.498;18.544;2023-05-07T03:03:56;6.80;;;4.60;;
71204;SDS011;58935;54.498;18.544;2023-05-07T03:06:21;7.80;;;4.60;;
71204;SDS011;58935;54.498;18.544;2023-05-07T03:08:47;7.00;;;4.50;;
71204;SDS011;58935;54.498;18.544;2023-05-07T03:11:12;22.00;;;5.60;;
71204;SDS011;58935;54.498;18.544;2023-05-07T03:13:38;12.90;;;4.60;;
71204;SDS011;58935;54.498;18.544;2023-05-07T03:16:03;9.20;;;5.20;;
71204;SDS011;58935;54.498;18.544;2023-05-07T03:18:31;10.60;;;5.20;;
71204;SDS011;58935;54.498;18.544;2023-05-07T03:20:57;11.80;;;5.30;;
71204;SDS011;58935;54.498;18.544;2023-05-07T03:23:22;16.60;;;4.70;;
71204;SDS011;58935;54.498;18.544;2023-05-07T03:25:48;7.70;;;4.70;;
71204;SDS011;58935;54.498;18.544;2023-05-07T03:28:13;10.90;;;4.70;;
71204;SDS011;58935;54.498;18.544;2023-05-07T03:30:38;8.00;;;4.30;;
71204;SDS011;58935;54.498;18.544;2023-05-07T03:33:04;6.60;;;4.50;;
71204;SDS011;58935;54.498;18.544;2023-05-07T03:35:30;10.20;;;4.60;;
71204;SDS011;58935;54.498;18.544;2023-05-07T03:37:55;9.70;;;4.70;;
71204;SDS011;58935;54.498;18.544;2023-05-07T03:40:21;5.20;;;4.70;;
71204;SDS011;58935;54.498;18.544;2023-05-07T03:42:46;10.40;;;4.80;;
71204;SDS011;58935;54.498;18.544;2023-05-07T03:45:12;7.20;;;4.80;;
71204;SDS011;58935;54.498;18.544;2023-05-07T03:47:37;6.80;;;5.00;;
71204;SDS011;58935;54.498;18.544;2023-05-07T03:50:03;9.50;;;5.30;;
71204;SDS011;58935;54.498;18.544;2023-05-07T03:52:28;12.60;;;5.50;;
71204;SDS011;58935;54.498;18.544;2023-05-07T03:54:54;18.60;;;6.10;;
71204;SDS011;58935;54.498;18.544;2023-05-07T03:57:20;10.00;;;5.50;;
71204;SDS011;58935;54.498;18.544;2023-05-07T03:59:45;8.70;;;5.40;;
71204;SDS011;58935;54.498;18.544;2023-05-07T04:02:11;12.10;;;5.20;;
71204;SDS011;58935;54.498;18.544;2023-05-07T04:04:36;9.70;;;5.20;;
71204;SDS011;58935;54.498;18.544;2023-05-07T04:07:02;10.70;;;5.80;;
71204;SDS011;58935;54.498;18.544;2023-05-07T04:09:28;10.30;;;5.80;;
71204;SDS011;58935;54.498;18.544;2023-05-07T04:11:53;15.40;;;5.50;;
71204;SDS011;58935;54.498;18.544;2023-05-07T04:14:19;7.90;;;4.80;;
71204;SDS011;58935;54.498;18.544;2023-05-07T04:16:44;10.60;;;5.30;;
71204;SDS011;58935;54.498;18.544;2023-05-07T04:19:10;11.20;;;5.30;;
71204;SDS011;58935;54.498;18.544;2023-05-07T04:21:35;8.80;;;4.90;;
71204;SDS011;58935;54.498;18.544;2023-05-07T04:24:03;7.20;;;5.00;;
71204;SDS011;58935;54.498;18.544;2023-05-07T04:26:29;9.50;;;5.00;;
71204;SDS011;58935;54.498;18.544;2023-05-07T04:28:54;10.90;;;5.40;;
71204;SDS011;58935;54.498;18.544;2023-05-07T04:31:20;8.60;;;4.90;;
71204;SDS011;58935;54.498;18.544;2023-05-07T04:33:46;7.90;;;5.60;;
71204;SDS011;58935;54.498;18.544;2023-05-07T04:36:11;11.90;;;6.30;;
71204;SDS011;58935;54.498;18.544;2023-05-07T04:38:37;19.90;;;8.50;;
71204;SDS011;58935;54.498;18.544;2023-05-07T04:41:04;21.90;;;9.00;;
71204;SDS011;58935;54.498;18.544;2023-05-07T04:43:31;15.90;;;7.60;;
71204;SDS011;58935;54.498;18.544;2023-05-07T04:45:57;15.10;;;7.40;;
71204;SDS011;58935;54.498;18.544;2023-05-07T04:48:23;15.30;;;6.50;;
71204;SDS011;58935;54.498;18.544;2023-05-07T04:50:49;15.00;;;6.80;;
71204;SDS011;58935;54.498;18.544;2023-05-07T04:53:16;10.80;;;5.60;;
71204;SDS011;58935;54.498;18.544;2023-05-07T04:55:43;11.10;;;5.30;;
71204;SDS011;58935;54.498;18.544;2023-05-07T04:58:10;8.20;;;4.70;;
71204;SDS011;58935;54.498;18.544;2023-05-07T05:00:36;5.30;;;3.30;;
71204;SDS011;58935;54.498;18.544;2023-05-07T05:03:01;11.00;;;3.50;;
71204;SDS011;58935;54.498;18.544;2023-05-07T05:05:27;7.30;;;3.50;;
71204;SDS011;58935;54.498;18.544;2023-05-07T05:07:52;6.70;;;3.60;;
71204;SDS011;58935;54.498;18.544;2023-05-07T05:10:18;4.10;;;3.30;;
71204;SDS011;58935;54.498;18.544;2023-05-07T05:12:43;5.60;;;3.10;;
71204;SDS011;58935;54.498;18.544;2023-05-07T05:15:11;5.20;;;3.00;;
71204;SDS011;58935;54.498;18.544;2023-05-07T05:17:38;10.40;;;3.50;;
71204;SDS011;58935;54.498;18.544;2023-05-07T05:20:04;4.40;;;3.60;;
71204;SDS011;58935;54.498;18.544;2023-05-07T05:22:31;5.90;;;3.30;;
71204;SDS011;58935;54.498;18.544;2023-05-07T05:24:57;6.00;;;3.10;;
71204;SDS011;58935;54.498;18.544;2023-05-07T05:27:23;9.10;;;3.50;;
71204;SDS011;58935;54.498;18.544;2023-05-07T05:29:48;9.40;;;3.80;;
71204;SDS011;58935;54.498;18.544;2023-05-07T05:32:14;7.90;;;3.60;;
71204;SDS011;58935;54.498;18.544;2023-05-07T05:34:39;8.50;;;3.50;;
71204;SDS011;58935;54.498;18.544;2023-05-07T05:37:05;5.50;;;2.90;;
71204;SDS011;58935;54.498;18.544;2023-05-07T05:39:31;5.50;;;3.30;;
71204;SDS011;58935;54.498;18.544;2023-05-07T05:41:56;6.60;;;3.40;;
71204;SDS011;58935;54.498;18.544;2023-05-07T05:44:22;5.90;;;3.60;;
71204;SDS011;58935;54.498;18.544;2023-05-07T05:46:47;4.90;;;3.60;;
71204;SDS011;58935;54.498;18.544;2023-05-07T05:49:15;4.00;;;3.60;;
71204;SDS011;58935;54.498;18.544;2023-05-07T05:51:40;3.90;;;3.20;;
71204;SDS011;58935;54.498;18.544;2023-05-07T05:54:06;4.70;;;3.20;;
71204;SDS011;58935;54.498;18.544;2023-05-07T05:56:32;5.50;;;3.50;;
71204;SDS011;58935;54.498;18.544;2023-05-07T05:58:58;5.10;;;3.00;;
71204;SDS011;58935;54.498;18.544;2023-05-07T06:01:23;8.70;;;3.00;;
71204;SDS011;58935;54.498;18.544;2023-05-07T06:03:49;11.40;;;3.50;;
71204;SDS011;58935;54.498;18.544;2023-05-07T06:06:14;4.90;;;3.30;;
71204;SDS011;58935;54.498;18.544;2023-05-07T06:08:40;6.90;;;3.00;;
71204;SDS011;58935;54.498;18.544;2023-05-07T06:11:07;6.50;;;3.70;;
71204;SDS011;58935;54.498;18.544;2023-05-07T06:13:32;4.90;;;2.90;;
71204;SDS011;58935;54.498;18.544;2023-05-07T06:15:58;4.70;;;3.30;;
71204;SDS011;58935;54.498;18.544;2023-05-07T06:18:23;5.60;;;3.00;;
71204;SDS011;58935;54.498;18.544;2023-05-07T06:20:49;6.90;;;3.50;;
71204;SDS011;58935;54.498;18.544;2023-05-07T06:23:14;8.10;;;3.70;;
71204;SDS011;58935;54.498;18.544;2023-05-07T06:25:40;3.20;;;2.90;;
71204;SDS011;58935;54.498;18.544;2023-05-07T06:28:05;6.90;;;3.20;;
71204;SDS011;58935;54.498;18.544;2023-05-07T06:30:31;4.90;;;3.60;;
71204;SDS011;58935;54.498;18.544;2023-05-07T06:32:56;9.40;;;3.60;;
71204;SDS011;58935;54.498;18.544;2023-05-07T06:35:22;3.70;;;3.40;;
71204;SDS011;58935;54.498;18.544;2023-05-07T06:37:47;7.90;;;3.50;;
71204;SDS011;58935;54.498;18.544;2023-05-07T06:40:12;8.70;;;3.30;;
71204;SDS011;58935;54.498;18.544;2023-05-07T06:42:38;7.10;;;3.30;;
71204;SDS011;58935;54.498;18.544;2023-05-07T06:45:04;4.10;;;3.30;;
71204;SDS011;58935;54.498;18.544;2023-05-07T06:47:30;7.50;;;3.90;;
71204;SDS011;58935;54.498;18.544;2023-05-07T06:49:55;3.90;;;3.50;;
71204;SDS011;58935;54.498;18.544;2023-05-07T06:52:21;7.30;;;3.30;;
71204;SDS011;58935;54.498;18.544;2023-05-07T06:54:46;4.80;;;3.40;;
71204;SDS011;58935;54.498;18.544;2023-05-07T06:57:12;4.90;;;3.30;;
71204;SDS011;58935;54.498;18.544;2023-05-07T06:59:37;4.70;;;2.70;;
71204;SDS011;58935;54.498;18.544;2023-05-07T07:02:03;11.10;;;3.70;;
71204;SDS011;58935;54.498;18.544;2023-05-07T07:04:28;7.20;;;3.10;;
71204;SDS011;58935;54.498;18.544;2023-05-07T07:06:54;5.60;;;3.10;;
71204;SDS011;58935;54.498;18.544;2023-05-07T07:09:20;6.90;;;3.50;;
71204;SDS011;58935;54.498;18.544;2023-05-07T07:11:45;5.30;;;3.30;;
71204;SDS011;58935;54.498;18.544;2023-05-07T07:14:11;3.80;;;3.10;;
71204;SDS011;58935;54.498;18.544;2023-05-07T07:16:36;6.80;;;3.20;;
71204;SDS011;58935;54.498;18.544;2023-05-07T07:19:02;5.30;;;3.60;;
71204;SDS011;58935;54.498;18.544;2023-05-07T07:21:27;5.10;;;3.30;;
71204;SDS011;58935;54.498;18.544;2023-05-07T07:23:53;5.20;;;3.70;;
71204;SDS011;58935;54.498;18.544;2023-05-07T07:26:19;6.10;;;3.20;;
71204;SDS011;58935;54.498;18.544;2023-05-07T07:28:45;3.70;;;2.90;;
71204;SDS011;58935;54.498;18.544;2023-05-07T07:31:11;5.00;;;3.40;;
71204;SDS011;58935;54.498;18.544;2023-05-07T07:33:38;4.00;;;3.00;;
71204;SDS011;58935;54.498;18.544;2023-05-07T07:36:05;10.20;;;3.80;;
71204;SDS011;58935;54.498;18.544;2023-05-07T07:38:32;7.50;;;4.00;;
71204;SDS011;58935;54.498;18.544;2023-05-07T07:40:58;6.40;;;2.90;;
71204;SDS011;58935;54.498;18.544;2023-05-07T07:43:23;6.60;;;3.00;;
71204;SDS011;58935;54.498;18.544;2023-05-07T07:45:49;4.00;;;3.20;;
71204;SDS011;58935;54.498;18.544;2023-05-07T07:48:14;6.00;;;3.00;;
71204;SDS011;58935;54.498;18.544;2023-05-07T07:50:40;7.00;;;3.50;;
71204;SDS011;58935;54.498;18.544;2023-05-07T07:53:05;5.30;;;3.30;;
71204;SDS011;58935;54.498;18.544;2023-05-07T07:55:31;8.10;;;3.80;;
71204;SDS011;58935;54.498;18.544;2023-05-07T07:57:57;3.70;;;3.20;;
71204;SDS011;58935;54.498;18.544;2023-05-07T08:00:22;7.10;;;3.40;;
71204;SDS011;58935;54.498;18.544;2023-05-07T08:02:48;7.60;;;3.30;;
71204;SDS011;58935;54.498;18.544;2023-05-07T08:05:14;4.10;;;3.20;;
71204;SDS011;58935;54.498;18.544;2023-05-07T08:07:40;5.80;;;3.00;;
71204;SDS011;58935;54.498;18.544;2023-05-07T08:10:06;8.40;;;3.60;;
71204;SDS011;58935;54.498;18.544;2023-05-07T08:12:32;4.70;;;3.10;;
71204;SDS011;58935;54.498;18.544;2023-05-07T08:14:57;6.60;;;3.80;;
71204;SDS011;58935;54.498;18.544;2023-05-07T08:17:23;6.30;;;3.60;;
71204;SDS011;58935;54.498;18.544;2023-05-07T08:19:49;8.10;;;3.70;;
71204;SDS011;58935;54.498;18.544;2023-05-07T08:22:15;6.40;;;3.60;;
71204;SDS011;58935;54.498;18.544;2023-05-07T08:24:41;6.50;;;3.20;;
71204;SDS011;58935;54.498;18.544;2023-05-07T08:27:06;5.80;;;3.30;;
71204;SDS011;58935;54.498;18.544;2023-05-07T08:29:32;4.60;;;3.40;;
71204;SDS011;58935;54.498;18.544;2023-05-07T08:31:57;5.70;;;3.80;;
71204;SDS011;58935;54.498;18.544;2023-05-07T08:34:23;8.70;;;4.20;;
71204;SDS011;58935;54.498;18.544;2023-05-07T08:36:48;4.30;;;2.90;;
71204;SDS011;58935;54.498;18.544;2023-05-07T08:39:15;6.50;;;4.00;;
71204;SDS011;58935;54.498;18.544;2023-05-07T08:41:44;4.30;;;3.60;;
71204;SDS011;58935;54.498;18.544;2023-05-07T08:44:12;6.60;;;3.80;;
71204;SDS011;58935;54.498;18.544;2023-05-07T08:46:39;4.10;;;3.40;;
71204;SDS011;58935;54.498;18.544;2023-05-07T08:49:07;7.60;;;4.00;;
71204;SDS011;58935;54.498;18.544;2023-05-07T08:51:34;5.10;;;3.60;;
71204;SDS011;58935;54.498;18.544;2023-05-07T08:54:01;9.20;;;3.30;;
71204;SDS011;58935;54.498;18.544;2023-05-07T08:56:27;5.10;;;3.10;;
71204;SDS011;58935;54.498;18.544;2023-05-07T08:58:52;3.20;;;2.90;;
71204;SDS011;58935;54.498;18.544;2023-05-07T09:01:21;7.10;;;3.30;;
71204;SDS011;58935;54.498;18.544;2023-05-07T09:03:47;6.20;;;3.40;;
71204;SDS011;58935;54.498;18.544;2023-05-07T09:06:15;4.80;;;3.00;;
71204;SDS011;58935;54.498;18.544;2023-05-07T09:08:49;4.40;;;3.70;;
71204;SDS011;58935;54.498;18.544;2023-05-07T09:11:20;6.10;;;3.80;;
71204;SDS011;58935;54.498;18.544;2023-05-07T09:13:47;8.90;;;5.10;;
71204;SDS011;58935;54.498;18.544;2023-05-07T09:16:13;9.00;;;4.30;;
71204;SDS011;58935;54.498;18.544;2023-05-07T09:18:41;7.70;;;3.70;;
71204;SDS011;58935;54.498;18.544;2023-05-07T09:21:11;4.20;;;2.90;;
71204;SDS011;58935;54.498;18.544;2023-05-07T09:23:40;4.70;;;3.70;;
71204;SDS011;58935;54.498;18.544;2023-05-07T09:26:06;5.10;;;3.60;;
71204;SDS011;58935;54.498;18.544;2023-05-07T09:28:38;4.70;;;3.40;;
71204;SDS011;58935;54.498;18.544;2023-05-07T09:31:09;6.20;;;3.90;;
71204;SDS011;58935;54.498;18.544;2023-05-07T09:33:38;7.20;;;3.90;;
71204;SDS011;58935;54.498;18.544;2023-05-07T09:36:08;7.90;;;3.50;;
71204;SDS011;58935;54.498;18.544;2023-05-07T09:38:36;4.00;;;3.50;;
71204;SDS011;58935;54.498;18.544;2023-05-07T09:41:07;5.50;;;3.90;;
71204;SDS011;58935;54.498;18.544;2023-05-07T09:43:35;4.40;;;3.60;;
71204;SDS011;58935;54.498;18.544;2023-05-07T09:46:05;5.60;;;3.40;;
71204;SDS011;58935;54.498;18.544;2023-05-07T09:48:37;9.00;;;2.60;;
71204;SDS011;58935;54.498;18.544;2023-05-07T09:51:11;6.60;;;3.30;;
71204;SDS011;58935;54.498;18.544;2023-05-07T09:53:43;5.60;;;3.40;;
71204;SDS011;58935;54.498;18.544;2023-05-07T09:56:09;3.20;;;2.70;;
71204;SDS011;58935;54.498;18.544;2023-05-07T09:58:36;2.80;;;2.60;;
71204;SDS011;58935;54.498;18.544;2023-05-07T10:01:03;10.50;;;2.80;;
71204;SDS011;58935;54.498;18.544;2023-05-07T10:03:30;3.50;;;3.00;;
71204;SDS011;58935;54.498;18.544;2023-05-07T10:05:59;3.00;;;2.80;;
71204;SDS011;58935;54.498;18.544;2023-05-07T10:08:28;4.40;;;2.70;;
71204;SDS011;58935;54.498;18.544;2023-05-07T10:10:56;4.70;;;3.00;;
71204;SDS011;58935;54.498;18.544;2023-05-07T10:13:21;3.70;;;2.60;;
71204;SDS011;58935;54.498;18.544;2023-05-07T10:15:50;4.80;;;3.10;;
71204;SDS011;58935;54.498;18.544;2023-05-07T10:18:18;5.00;;;3.10;;
71204;SDS011;58935;54.498;18.544;2023-05-07T10:20:48;2.70;;;2.50;;
71204;SDS011;58935;54.498;18.544;2023-05-07T10:23:21;6.60;;;3.40;;
71204;SDS011;58935;54.498;18.544;2023-05-07T10:28:15;4.60;;;3.30;;
71204;SDS011;58935;54.498;18.544;2023-05-07T10:33:31;3.70;;;2.90;;
71204;SDS011;58935;54.498;18.544;2023-05-07T10:36:00;7.20;;;3.00;;
71204;SDS011;58935;54.498;18.544;2023-05-07T10:38:28;5.10;;;2.90;;
71204;SDS011;58935;54.498;18.544;2023-05-07T10:40:54;6.10;;;3.10;;
71204;SDS011;58935;54.498;18.544;2023-05-07T10:43:20;5.30;;;2.80;;
71204;SDS011;58935;54.498;18.544;2023-05-07T10:48:21;3.90;;;3.10;;
71204;SDS011;58935;54.498;18.544;2023-05-07T10:50:49;3.30;;;2.80;;
71204;SDS011;58935;54.498;18.544;2023-05-07T10:53:37;5.50;;;3.30;;
71204;SDS011;58935;54.498;18.544;2023-05-07T10:58:51;4.80;;;3.50;;
71204;SDS011;58935;54.498;18.544;2023-05-07T11:04:12;4.20;;;3.80;;
71204;SDS011;58935;54.498;18.544;2023-05-07T11:06:39;8.10;;;3.40;;
71204;SDS011;58935;54.498;18.544;2023-05-07T11:09:05;6.10;;;3.70;;
71204;SDS011;58935;54.498;18.544;2023-05-07T11:14:05;4.40;;;4.00;;
71204;SDS011;58935;54.498;18.544;2023-05-07T11:16:32;4.80;;;3.30;;
71204;SDS011;58935;54.498;18.544;2023-05-07T11:19:00;6.70;;;4.00;;
71204;SDS011;58935;54.498;18.544;2023-05-07T11:23:59;7.30;;;3.40;;
71204;SDS011;58935;54.498;18.544;2023-05-07T11:26:27;6.50;;;3.30;;
71204;SDS011;58935;54.498;18.544;2023-05-07T11:28:54;4.40;;;3.20;;
71204;SDS011;58935;54.498;18.544;2023-05-07T11:31:25;4.40;;;3.40;;
71204;SDS011;58935;54.498;18.544;2023-05-07T11:33:54;4.20;;;3.80;;
71204;SDS011;58935;54.498;18.544;2023-05-07T11:36:22;4.50;;;3.80;;
71204;SDS011;58935;54.498;18.544;2023-05-07T11:38:48;4.00;;;3.70;;
71204;SDS011;58935;54.498;18.544;2023-05-07T11:41:16;4.70;;;3.10;;
71204;SDS011;58935;54.498;18.544;2023-05-07T11:46:17;6.20;;;3.50;;
71204;SDS011;58935;54.498;18.544;2023-05-07T11:48:44;6.30;;;3.90;;
71204;SDS011;58935;54.498;18.544;2023-05-07T11:51:10;6.10;;;3.30;;
71204;SDS011;58935;54.498;18.544;2023-05-07T11:53:42;3.90;;;3.50;;
71204;SDS011;58935;54.498;18.544;2023-05-07T11:56:09;7.20;;;3.50;;
71204;SDS011;58935;54.498;18.544;2023-05-07T11:58:37;6.20;;;3.60;;
71204;SDS011;58935;54.498;18.544;2023-05-07T12:01:03;4.60;;;3.60;;
71204;SDS011;58935;54.498;18.544;2023-05-07T12:03:29;6.30;;;4.00;;
71204;SDS011;58935;54.498;18.544;2023-05-07T12:05:55;3.90;;;3.50;;
71204;SDS011;58935;54.498;18.544;2023-05-07T12:08:21;8.30;;;4.20;;
71204;SDS011;58935;54.498;18.544;2023-05-07T12:10:49;8.00;;;3.50;;
71204;SDS011;58935;54.498;18.544;2023-05-07T12:13:20;5.10;;;3.10;;
71204;SDS011;58935;54.498;18.544;2023-05-07T12:15:51;3.50;;;3.10;;
71204;SDS011;58935;54.498;18.544;2023-05-07T12:18:18;4.50;;;3.10;;
71204;SDS011;58935;54.498;18.544;2023-05-07T12:20:45;3.60;;;2.90;;
71204;SDS011;58935;54.498;18.544;2023-05-07T12:23:11;6.10;;;2.70;;
71204;SDS011;58935;54.498;18.544;2023-05-07T12:25:38;4.50;;;2.90;;
71204;SDS011;58935;54.498;18.544;2023-05-07T12:28:12;4.70;;;2.90;;
71204;SDS011;58935;54.498;18.544;2023-05-07T12:30:42;6.10;;;3.00;;
71204;SDS011;58935;54.498;18.544;2023-05-07T12:33:09;6.90;;;2.80;;
71204;SDS011;58935;54.498;18.544;2023-05-07T12:35:38;2.80;;;2.40;;
71204;SDS011;58935;54.498;18.544;2023-05-07T12:38:09;7.80;;;3.10;;
71204;SDS011;58935;54.498;18.544;2023-05-07T12:40:40;4.90;;;2.90;;
71204;SDS011;58935;54.498;18.544;2023-05-07T12:43:07;4.30;;;2.90;;
71204;SDS011;58935;54.498;18.544;2023-05-07T12:45:42;7.10;;;3.20;;
71204;SDS011;58935;54.498;18.544;2023-05-07T12:48:10;4.50;;;2.80;;
71204;SDS011;58935;54.498;18.544;2023-05-07T12:50:36;9.60;;;3.30;;
71204;SDS011;58935;54.498;18.544;2023-05-07T12:53:04;6.00;;;2.80;;
71204;SDS011;58935;54.498;18.544;2023-05-07T12:55:31;4.30;;;3.00;;
71204;SDS011;58935;54.498;18.544;2023-05-07T12:58:01;8.70;;;2.90;;
71204;SDS011;58935;54.498;18.544;2023-05-07T13:00:33;4.50;;;2.90;;
71204;SDS011;58935;54.498;18.544;2023-05-07T13:03:03;3.40;;;2.70;;
71204;SDS011;58935;54.498;18.544;2023-05-07T13:05:28;4.50;;;3.30;;
71204;SDS011;58935;54.498;18.544;2023-05-07T13:07:57;5.80;;;2.90;;
71204;SDS011;58935;54.498;18.544;2023-05-07T13:10:26;9.40;;;2.90;;
71204;SDS011;58935;54.498;18.544;2023-05-07T13:12:55;4.10;;;2.80;;
71204;SDS011;58935;54.498;18.544;2023-05-07T13:15:21;4.90;;;3.20;;
71204;SDS011;58935;54.498;18.544;2023-05-07T13:17:47;7.00;;;3.40;;
71204;SDS011;58935;54.498;18.544;2023-05-07T13:20:15;3.60;;;2.60;;
71204;SDS011;58935;54.498;18.544;2023-05-07T13:22:40;3.00;;;2.60;;
71204;SDS011;58935;54.498;18.544;2023-05-07T13:25:07;4.90;;;2.70;;
71204;SDS011;58935;54.498;18.544;2023-05-07T13:27:33;2.90;;;2.20;;
71204;SDS011;58935;54.498;18.544;2023-05-07T13:30:03;3.40;;;2.70;;
71204;SDS011;58935;54.498;18.544;2023-05-07T13:32:30;4.10;;;3.00;;
71204;SDS011;58935;54.498;18.544;2023-05-07T13:34:58;2.50;;;2.30;;
71204;SDS011;58935;54.498;18.544;2023-05-07T13:37:24;3.20;;;2.70;;
71204;SDS011;58935;54.498;18.544;2023-05-07T13:39:50;7.30;;;2.60;;
71204;SDS011;58935;54.498;18.544;2023-05-07T13:42:16;6.70;;;3.00;;
71204;SDS011;58935;54.498;18.544;2023-05-07T13:44:42;4.90;;;2.50;;
71204;SDS011;58935;54.498;18.544;2023-05-07T13:47:09;6.60;;;2.60;;
71204;SDS011;58935;54.498;18.544;2023-05-07T13:49:36;3.50;;;2.40;;
71204;SDS011;58935;54.498;18.544;2023-05-07T13:52:02;5.50;;;2.20;;
71204;SDS011;58935;54.498;18.544;2023-05-07T13:54:28;4.20;;;2.10;;
71204;SDS011;58935;54.498;18.544;2023-05-07T13:56:53;5.50;;;2.70;;
71204;SDS011;58935;54.498;18.544;2023-05-07T13:59:19;2.70;;;2.40;;
71204;SDS011;58935;54.498;18.544;2023-05-07T14:01:44;3.40;;;2.30;;
71204;SDS011;58935;54.498;18.544;2023-05-07T14:04:10;5.30;;;2.60;;
71204;SDS011;58935;54.498;18.544;2023-05-07T14:06:36;3.70;;;2.50;;
71204;SDS011;58935;54.498;18.544;2023-05-07T14:09:01;3.10;;;2.40;;
71204;SDS011;58935;54.498;18.544;2023-05-07T14:11:29;3.30;;;2.50;;
71204;SDS011;58935;54.498;18.544;2023-05-07T14:13:55;3.10;;;2.30;;
71204;SDS011;58935;54.498;18.544;2023-05-07T14:16:22;2.70;;;2.50;;
71204;SDS011;58935;54.498;18.544;2023-05-07T14:18:47;3.50;;;2.30;;
71204;SDS011;58935;54.498;18.544;2023-05-07T14:21:12;4.10;;;2.20;;
71204;SDS011;58935;54.498;18.544;2023-05-07T14:23:40;7.40;;;2.80;;
71204;SDS011;58935;54.498;18.544;2023-05-07T14:26:06;5.00;;;2.90;;
71204;SDS011;58935;54.498;18.544;2023-05-07T14:28:31;6.10;;;2.70;;
71204;SDS011;58935;54.498;18.544;2023-05-07T14:30:57;5.20;;;2.40;;
71204;SDS011;58935;54.498;18.544;2023-05-07T14:33:22;3.80;;;2.60;;
71204;SDS011;58935;54.498;18.544;2023-05-07T14:35:50;6.70;;;2.50;;
71204;SDS011;58935;54.498;18.544;2023-05-07T14:38:15;6.30;;;2.80;;
71204;SDS011;58935;54.498;18.544;2023-05-07T14:40:41;3.20;;;2.80;;
71204;SDS011;58935;54.498;18.544;2023-05-07T14:43:07;4.40;;;2.40;;
71204;SDS011;58935;54.498;18.544;2023-05-07T14:45:32;3.80;;;2.60;;
71204;SDS011;58935;54.498;18.544;2023-05-07T14:47:57;9.00;;;3.10;;
71204;SDS011;58935;54.498;18.544;2023-05-07T14:50:23;5.50;;;3.50;;
71204;SDS011;58935;54.498;18.544;2023-05-07T14:52:49;8.00;;;3.30;;
71204;SDS011;58935;54.498;18.544;2023-05-07T14:55:17;6.60;;;4.00;;